createdAt,value
2023-05-14T00:01:56.422Z,9.26
2023-05-14T00:04:42.741Z,9.10
2023-05-14T00:07:30.897Z,9.30
2023-05-14T00:10:19.017Z,9.23
2023-05-14T00:13:05.825Z,9.23
2023-05-14T00:15:52.107Z,8.87
2023-05-14T00:18:38.673Z,9.04
2023-05-14T00:21:24.960Z,8.88
2023-05-14T00:24:11.264Z,8.75
2023-05-14T00:26:57.379Z,8.85
2023-05-14T00:29:43.755Z,8.83
2023-05-14T00:32:30.497Z,8.76
2023-05-14T00:35:17.170Z,8.60
2023-05-14T00:38:04.286Z,8.77
2023-05-14T00:40:51.802Z,8.85
2023-05-14T00:43:38.456Z,8.80
2023-05-14T00:46:25.527Z,8.95
2023-05-14T00:49:12.236Z,8.87
2023-05-14T00:52:00.361Z,8.72
2023-05-14T00:54:48.112Z,8.53
2023-05-14T00:57:36.163Z,8.36
2023-05-14T01:00:22.479Z,8.28
2023-05-14T01:03:09.365Z,8.25
2023-05-14T01:06:01.133Z,8.12
2023-05-14T01:09:03.345Z,7.85
2023-05-14T01:12:06.159Z,8.23
2023-05-14T01:15:04.619Z,8.21
2023-05-14T01:18:01.897Z,7.99
2023-05-14T01:20:52.185Z,7.98
2023-05-14T01:23:38.375Z,7.97
2023-05-14T01:26:24.818Z,7.89
2023-05-14T01:29:27.415Z,7.87
2023-05-14T01:32:15.712Z,7.98
2023-05-14T01:35:03.163Z,8.01
2023-05-14T01:37:50.693Z,7.90
2023-05-14T01:40:38.372Z,7.73
2023-05-14T01:43:24.875Z,7.78
2023-05-14T01:46:11.324Z,7.63
2023-05-14T01:48:57.887Z,7.71
2023-05-14T01:51:44.512Z,7.75
2023-05-14T01:54:30.764Z,7.81
2023-05-14T01:57:17.268Z,7.64
2023-05-14T02:00:04.313Z,7.54
2023-05-14T02:03:00.483Z,7.52
2023-05-14T02:05:46.909Z,7.45
2023-05-14T02:08:33.439Z,7.33
2023-05-14T02:11:20.192Z,7.36
2023-05-14T02:14:06.324Z,7.29
2023-05-14T02:16:52.703Z,7.14
2023-05-14T02:19:39.000Z,7.04
2023-05-14T02:22:25.181Z,7.08
2023-05-14T02:25:11.592Z,7.12
2023-05-14T02:27:57.944Z,7.37
2023-05-14T02:30:44.225Z,7.23
2023-05-14T02:33:30.811Z,7.10
2023-05-14T02:36:17.305Z,7.08
2023-05-14T02:39:04.839Z,7.14
2023-05-14T02:41:51.327Z,7.20
2023-05-14T02:44:37.855Z,7.19
2023-05-14T02:47:24.276Z,7.28
2023-05-14T02:50:11.144Z,6.96
2023-05-14T02:52:57.277Z,6.90
2023-05-14T02:55:43.896Z,6.82
2023-05-14T02:58:30.455Z,6.81
2023-05-14T03:01:18.670Z,6.68
2023-05-14T03:04:05.746Z,6.59
2023-05-14T03:06:52.337Z,6.62
2023-05-14T03:09:39.068Z,6.61
2023-05-14T03:12:25.600Z,6.67
2023-05-14T03:15:11.863Z,6.64
2023-05-14T03:17:58.310Z,6.94
2023-05-14T03:20:44.711Z,6.85
2023-05-14T03:23:35.014Z,7.00
2023-05-14T03:26:21.579Z,7.02
2023-05-14T03:29:08.312Z,7.12
2023-05-14T03:31:54.860Z,6.85
2023-05-14T03:34:41.519Z,6.98
2023-05-14T03:37:27.848Z,7.12
2023-05-14T03:40:14.227Z,7.07
2023-05-14T03:43:03.155Z,7.18
2023-05-14T03:45:52.515Z,7.04
2023-05-14T03:48:39.138Z,7.10
2023-05-14T03:51:25.866Z,7.04
2023-05-14T03:54:13.489Z,7.04
2023-05-14T04:01:38.594Z,7.18
2023-05-14T04:04:25.050Z,7.48
2023-05-14T04:07:11.341Z,7.59
2023-05-14T04:09:57.597Z,7.77
2023-05-14T04:12:44.206Z,7.87
2023-05-14T04:15:30.949Z,8.02
2023-05-14T04:18:17.527Z,7.98
2023-05-14T04:21:03.924Z,7.98
2023-05-14T04:23:51.547Z,7.62
2023-05-14T04:26:37.857Z,8.16
2023-05-14T04:29:24.347Z,8.12
2023-05-14T04:32:12.097Z,8.23
2023-05-14T04:34:58.604Z,8.32
2023-05-14T04:37:45.064Z,8.35
2023-05-14T04:40:31.888Z,8.43
2023-05-14T04:43:18.364Z,8.37
2023-05-14T04:46:05.706Z,8.31
2023-05-14T04:48:52.148Z,8.38
2023-05-14T04:51:38.340Z,8.59
2023-05-14T04:54:24.781Z,8.64
2023-05-14T04:57:11.311Z,8.92
2023-05-14T04:59:57.771Z,8.98
2023-05-14T05:02:44.181Z,9.13
2023-05-14T05:05:30.878Z,9.05
2023-05-14T05:08:17.249Z,9.08
2023-05-14T05:11:03.978Z,9.07
2023-05-14T05:13:50.424Z,9.33
2023-05-14T05:16:36.617Z,9.31
2023-05-14T05:19:35.811Z,9.61
2023-05-14T05:22:26.945Z,9.60
2023-05-14T05:25:13.461Z,9.70
2023-05-14T05:27:59.647Z,9.78
2023-05-14T05:30:45.869Z,10.05
2023-05-14T05:33:32.065Z,10.16
2023-05-14T05:36:18.444Z,10.26
2023-05-14T05:39:04.473Z,10.24
2023-05-14T05:41:50.979Z,10.32
2023-05-14T05:44:37.313Z,10.62
2023-05-14T05:47:23.886Z,10.65
2023-05-14T05:50:10.848Z,10.94
2023-05-14T05:52:59.143Z,10.84
2023-05-14T05:55:45.618Z,11.11
2023-05-14T05:58:32.108Z,10.83
2023-05-14T06:01:18.772Z,11.26
2023-05-14T06:04:06.257Z,11.34
2023-05-14T06:06:52.469Z,11.33
2023-05-14T06:09:38.909Z,11.58
2023-05-14T06:12:25.030Z,11.52
2023-05-14T06:15:12.210Z,12.08
2023-05-14T06:17:58.724Z,12.35
2023-05-14T06:20:45.282Z,12.29
2023-05-14T06:23:32.328Z,12.49
2023-05-14T06:26:18.867Z,12.23
2023-05-14T06:29:05.205Z,12.25
2023-05-14T06:31:51.422Z,12.30
2023-05-14T06:34:38.116Z,12.20
2023-05-14T06:37:24.319Z,12.71
2023-05-14T06:40:11.332Z,12.95
2023-05-14T06:42:57.767Z,13.23
2023-05-14T06:45:43.940Z,13.49
2023-05-14T06:48:30.859Z,13.58
2023-05-14T06:51:17.332Z,13.48
2023-05-14T06:54:03.806Z,13.66
2023-05-14T06:56:50.331Z,13.85
2023-05-14T06:59:37.087Z,14.00
2023-05-14T07:02:23.328Z,14.14
2023-05-14T07:05:10.684Z,14.33
2023-05-14T07:07:56.999Z,14.05
2023-05-14T07:10:43.328Z,13.94
2023-05-14T07:13:29.723Z,13.94
2023-05-14T07:16:16.415Z,13.69
2023-05-14T07:19:02.737Z,14.06
2023-05-14T07:21:49.443Z,14.34
2023-05-14T07:24:35.635Z,14.53
2023-05-14T07:27:21.857Z,14.58
2023-05-14T07:30:08.824Z,14.54
2023-05-14T07:32:55.122Z,14.49
2023-05-14T07:35:41.665Z,13.78
2023-05-14T07:38:28.209Z,13.88
2023-05-14T07:41:14.809Z,14.14
2023-05-14T07:44:01.189Z,14.35
2023-05-14T07:46:47.816Z,14.14
2023-05-14T07:49:34.597Z,14.49
2023-05-14T07:52:21.061Z,14.31
2023-05-14T07:55:07.773Z,14.22
2023-05-14T07:57:54.441Z,14.37
2023-05-14T08:00:40.969Z,14.59
2023-05-14T08:03:27.637Z,14.47
2023-05-14T08:06:14.079Z,14.37
2023-05-14T08:09:00.681Z,14.71
2023-05-14T08:11:46.979Z,14.98
2023-05-14T08:14:33.784Z,15.25
2023-05-14T08:17:20.076Z,15.53
2023-05-14T08:20:07.437Z,15.64
2023-05-14T08:22:53.748Z,15.61
2023-05-14T08:25:40.036Z,15.74
2023-05-14T08:28:26.295Z,15.60
2023-05-14T08:31:14.493Z,15.85
2023-05-14T08:34:00.875Z,15.99
2023-05-14T08:36:47.032Z,15.68
2023-05-14T08:39:33.472Z,15.79
2023-05-14T08:42:21.815Z,16.42
2023-05-14T08:45:16.760Z,16.56
2023-05-14T08:48:08.683Z,17.13
2023-05-14T08:50:55.287Z,17.91
2023-05-14T08:53:41.858Z,18.04
2023-05-14T08:56:29.420Z,18.29
2023-05-14T08:59:15.912Z,18.40
2023-05-14T09:02:04.431Z,18.33
2023-05-14T09:04:55.524Z,18.46
2023-05-14T09:07:42.160Z,17.96
2023-05-14T09:10:28.613Z,18.01
2023-05-14T09:13:14.832Z,17.93
2023-05-14T09:16:01.882Z,18.11
2023-05-14T09:18:48.427Z,17.89
2023-05-14T09:21:35.174Z,18.16
2023-05-14T09:24:23.918Z,18.53
2023-05-14T09:27:19.836Z,19.27
2023-05-14T09:30:11.217Z,19.27
2023-05-14T09:32:57.888Z,19.48
2023-05-14T09:35:44.176Z,19.36
2023-05-14T09:38:34.062Z,19.35
2023-05-14T09:41:22.935Z,19.67
2023-05-14T09:44:09.410Z,19.22
2023-05-14T09:46:56.386Z,19.42
2023-05-14T09:49:42.706Z,19.79
2023-05-14T09:52:29.479Z,20.21
2023-05-14T09:55:16.194Z,20.00
2023-05-14T09:58:02.991Z,20.17
2023-05-14T10:00:50.958Z,20.30
2023-05-14T10:03:37.491Z,20.66
2023-05-14T10:06:27.431Z,20.59
2023-05-14T10:09:16.658Z,20.74
2023-05-14T10:12:03.478Z,20.52
2023-05-14T10:14:53.768Z,19.61
2023-05-14T10:17:44.108Z,19.77
2023-05-14T10:20:31.383Z,19.49
2023-05-14T10:23:18.908Z,19.90
2023-05-14T10:26:05.996Z,20.06
2023-05-14T10:28:53.124Z,19.82
2023-05-14T10:31:54.074Z,19.84
2023-05-14T10:34:43.979Z,19.63
2023-05-14T10:37:30.463Z,19.27
2023-05-14T10:40:18.428Z,19.59
2023-05-14T10:43:05.104Z,19.16
2023-05-14T10:45:52.384Z,19.22
2023-05-14T10:48:43.098Z,18.62
2023-05-14T10:51:30.024Z,18.91
2023-05-14T10:54:16.828Z,18.68
2023-05-14T10:57:03.816Z,18.39
2023-05-14T10:59:55.670Z,18.70
2023-05-14T11:02:44.221Z,18.36
2023-05-14T11:05:31.674Z,18.59
2023-05-14T11:08:19.116Z,18.49
2023-05-14T11:11:06.166Z,18.17
2023-05-14T11:13:54.003Z,18.73
2023-05-14T11:16:41.432Z,18.68
2023-05-14T11:19:27.608Z,18.81
2023-05-14T11:22:14.488Z,18.94
2023-05-14T11:25:00.711Z,19.45
2023-05-14T11:27:47.969Z,20.10
2023-05-14T11:30:35.046Z,20.43
2023-05-14T11:33:21.422Z,19.81
2023-05-14T11:36:08.000Z,19.58
2023-05-14T11:38:54.926Z,19.47
2023-05-14T11:41:45.550Z,19.35
2023-05-14T11:44:32.200Z,19.02
2023-05-14T11:47:20.720Z,19.28
2023-05-14T11:50:09.371Z,19.52
2023-05-14T11:52:57.400Z,19.70
2023-05-14T11:55:43.637Z,19.49
2023-05-14T11:58:33.718Z,19.40
2023-05-14T12:01:20.154Z,19.19
2023-05-14T12:04:06.496Z,18.75
2023-05-14T12:06:54.790Z,18.03
2023-05-14T12:09:48.976Z,17.87
2023-05-14T12:12:37.009Z,17.49
2023-05-14T12:15:24.814Z,17.37
2023-05-14T12:18:23.397Z,17.11
2023-05-14T12:21:11.980Z,17.19
2023-05-14T12:23:59.777Z,17.13
2023-05-14T12:26:50.856Z,17.26
2023-05-14T12:29:41.347Z,17.69
2023-05-14T12:32:27.978Z,17.39
2023-05-14T12:35:14.304Z,17.63
2023-05-14T12:38:00.632Z,17.47
2023-05-14T12:40:47.535Z,18.01
2023-05-14T12:43:33.681Z,17.80
2023-05-14T12:46:20.245Z,18.08
2023-05-14T12:49:06.948Z,17.75
2023-05-14T12:52:07.789Z,17.91
2023-05-14T12:55:01.211Z,17.72
2023-05-14T12:57:47.433Z,18.18
2023-05-14T13:00:33.677Z,17.96
2023-05-14T13:03:21.085Z,18.26
2023-05-14T13:06:08.104Z,18.19
2023-05-14T13:08:54.396Z,18.03
2023-05-14T13:11:40.830Z,18.42
2023-05-14T13:14:26.930Z,18.71
2023-05-14T13:17:13.220Z,18.56
2023-05-14T13:19:59.818Z,18.57
2023-05-14T13:22:46.444Z,18.20
2023-05-14T13:25:33.305Z,18.27
2023-05-14T13:28:19.701Z,18.50
2023-05-14T13:31:10.982Z,18.21
2023-05-14T13:33:59.308Z,18.57
2023-05-14T13:36:46.844Z,18.58
2023-05-14T13:39:33.378Z,18.49
2023-05-14T13:42:19.538Z,18.74
2023-05-14T13:45:06.996Z,18.53
2023-05-14T13:47:53.621Z,18.27
2023-05-14T13:50:40.313Z,18.18
2023-05-14T13:53:26.853Z,18.23
2023-05-14T13:56:13.228Z,18.12
2023-05-14T13:58:59.702Z,18.35
2023-05-14T14:01:46.123Z,18.01
2023-05-14T14:04:32.692Z,18.19
2023-05-14T14:07:18.911Z,18.26
2023-05-14T14:10:05.819Z,17.95
2023-05-14T14:12:52.430Z,18.59
2023-05-14T14:15:38.677Z,18.48
2023-05-14T14:18:25.259Z,18.66
2023-05-14T14:21:11.892Z,18.63
2023-05-14T14:23:58.580Z,18.24
2023-05-14T14:26:44.793Z,18.76
2023-05-14T14:29:31.179Z,18.95
2023-05-14T14:32:17.657Z,18.82
2023-05-14T14:35:04.161Z,18.75
2023-05-14T14:37:53.629Z,18.38
2023-05-14T14:40:40.173Z,18.08
2023-05-14T14:43:26.438Z,18.20
2023-05-14T14:46:13.774Z,18.26
2023-05-14T14:49:00.294Z,18.52
2023-05-14T14:51:46.915Z,18.35
2023-05-14T14:54:33.333Z,18.15
2023-05-14T14:57:19.952Z,18.35
2023-05-14T15:00:07.181Z,18.24
2023-05-14T15:02:53.677Z,18.44
2023-05-14T15:05:40.533Z,18.47
2023-05-14T15:08:28.048Z,18.72
2023-05-14T15:11:14.882Z,18.38
2023-05-14T15:14:01.117Z,18.29
2023-05-14T15:16:50.800Z,18.28
2023-05-14T15:19:37.612Z,17.96
2023-05-14T15:22:24.065Z,17.93
2023-05-14T15:25:10.874Z,17.97
2023-05-14T15:27:57.566Z,17.68
2023-05-14T15:30:44.083Z,17.25
2023-05-14T15:33:30.500Z,17.42
2023-05-14T15:36:16.898Z,17.80
2023-05-14T15:39:03.200Z,17.79
2023-05-14T15:41:49.279Z,17.98
2023-05-14T15:44:38.651Z,17.75
2023-05-14T15:47:25.092Z,17.54
2023-05-14T15:50:11.638Z,17.68
2023-05-14T15:52:58.087Z,17.38
2023-05-14T15:55:44.629Z,17.51
2023-05-14T15:58:31.224Z,17.67
2023-05-14T16:01:19.020Z,17.72
2023-05-14T16:04:06.001Z,17.92
2023-05-14T16:06:52.241Z,17.54
2023-05-14T16:09:39.045Z,17.69
2023-05-14T16:12:26.154Z,18.09
2023-05-14T16:15:12.643Z,18.23
2023-05-14T16:18:00.316Z,18.66
2023-05-14T16:20:47.293Z,19.07
2023-05-14T16:23:33.681Z,19.05
2023-05-14T16:26:19.835Z,19.14
2023-05-14T16:29:06.462Z,18.90
2023-05-14T16:31:52.816Z,18.70
2023-05-14T16:34:39.360Z,18.53
2023-05-14T16:37:25.601Z,18.28
2023-05-14T16:40:12.254Z,17.99
2023-05-14T16:42:58.567Z,17.99
2023-05-14T16:45:45.093Z,17.66
2023-05-14T16:48:31.484Z,17.57
2023-05-14T16:51:18.128Z,17.52
2023-05-14T16:54:04.534Z,17.72
2023-05-14T16:56:51.034Z,17.75
2023-05-14T16:59:37.247Z,17.79
2023-05-14T17:02:23.413Z,17.96
2023-05-14T17:05:09.900Z,18.03
2023-05-14T17:07:56.806Z,17.79
2023-05-14T17:10:43.134Z,18.04
2023-05-14T17:13:29.367Z,18.43
2023-05-14T17:16:16.349Z,18.38
2023-05-14T17:19:02.619Z,18.28
2023-05-14T17:21:48.830Z,18.17
2023-05-14T17:24:36.356Z,17.93
2023-05-14T17:27:22.866Z,17.81
2023-05-14T17:30:09.566Z,17.32
2023-05-14T17:32:56.277Z,17.14
2023-05-14T17:35:43.845Z,17.06
2023-05-14T17:38:30.333Z,16.98
2023-05-14T17:41:16.643Z,16.87
2023-05-14T17:44:03.114Z,16.79
2023-05-14T17:46:49.892Z,16.55
2023-05-14T17:49:36.362Z,16.42
2023-05-14T17:52:22.491Z,16.39
2023-05-14T17:55:09.389Z,16.26
2023-05-14T17:57:56.511Z,15.98
2023-05-14T18:00:43.895Z,15.76
2023-05-14T18:03:30.821Z,15.77
2023-05-14T18:06:17.579Z,15.57
2023-05-14T18:09:04.235Z,15.49
2023-05-14T18:11:50.916Z,15.39
2023-05-14T18:14:37.212Z,15.40
2023-05-14T18:17:23.915Z,15.39
2023-05-14T18:20:10.666Z,15.27
2023-05-14T18:22:57.616Z,15.20
2023-05-14T18:25:44.367Z,15.04
2023-05-14T18:28:30.960Z,14.90
2023-05-14T18:31:17.528Z,14.86
2023-05-14T18:34:03.875Z,14.59
2023-05-14T18:36:50.851Z,14.64
2023-05-14T18:39:37.099Z,14.34
2023-05-14T18:42:23.280Z,14.29
2023-05-14T18:45:10.450Z,14.26
2023-05-14T18:47:56.813Z,13.91
2023-05-14T18:50:43.166Z,13.86
2023-05-14T18:53:29.357Z,13.49
2023-05-14T18:56:15.557Z,13.46
2023-05-14T18:59:01.978Z,13.42
2023-05-14T19:01:48.156Z,13.34
2023-05-14T19:04:44.280Z,13.05
2023-05-14T19:07:38.480Z,12.92
2023-05-14T19:10:24.788Z,12.70
2023-05-14T19:13:11.638Z,12.23
2023-05-14T19:15:57.921Z,12.34
2023-05-14T19:18:44.434Z,12.26
2023-05-14T19:21:30.990Z,12.27
2023-05-14T19:24:17.142Z,12.27
2023-05-14T19:27:04.398Z,12.05
2023-05-14T19:29:50.823Z,12.07
2023-05-14T19:32:37.975Z,11.80
2023-05-14T19:35:24.764Z,11.69
2023-05-14T19:38:11.606Z,11.70
2023-05-14T19:40:57.972Z,11.53
2023-05-14T19:43:44.341Z,11.53
2023-05-14T19:46:30.780Z,11.44
2023-05-14T19:49:16.916Z,11.44
2023-05-14T19:52:03.825Z,11.46
2023-05-14T19:54:50.232Z,11.32
2023-05-14T19:57:38.470Z,11.24
2023-05-14T20:00:24.865Z,11.12
2023-05-14T20:03:11.594Z,11.06
2023-05-14T20:05:58.005Z,11.00
2023-05-14T20:08:47.525Z,10.62
2023-05-14T20:11:34.003Z,10.78
2023-05-14T20:14:20.412Z,10.71
2023-05-14T20:17:06.650Z,10.68
2023-05-14T20:19:52.991Z,10.52
2023-05-14T20:22:39.944Z,10.61
2023-05-14T20:25:28.370Z,10.62
2023-05-14T20:28:15.197Z,10.54
2023-05-14T20:31:03.926Z,10.39
2023-05-14T20:33:50.651Z,10.30
2023-05-14T20:36:37.405Z,10.26
2023-05-14T20:39:23.709Z,10.29
2023-05-14T20:42:09.878Z,10.05
2023-05-14T20:44:56.351Z,10.16
2023-05-14T20:47:42.744Z,10.14
2023-05-14T20:50:28.979Z,10.28
2023-05-14T20:53:15.178Z,10.08
2023-05-14T20:56:01.385Z,9.95
2023-05-14T20:58:47.887Z,9.96
2023-05-14T21:01:34.279Z,9.98
2023-05-14T21:04:21.097Z,9.95
2023-05-14T21:07:07.359Z,10.13
2023-05-14T21:09:53.604Z,10.02
2023-05-14T21:12:40.381Z,9.70
2023-05-14T21:15:27.948Z,9.84
2023-05-14T21:18:14.413Z,10.00
2023-05-14T21:21:00.969Z,9.83
2023-05-14T21:23:47.604Z,9.55
2023-05-14T21:26:34.412Z,9.56
2023-05-14T21:29:20.727Z,9.27
2023-05-14T21:32:07.495Z,9.49
2023-05-14T21:34:53.621Z,9.25
2023-05-14T21:37:40.509Z,9.32
2023-05-14T21:40:26.989Z,9.35
2023-05-14T21:43:13.272Z,9.44
2023-05-14T21:45:59.690Z,9.65
2023-05-14T21:48:45.904Z,9.74
2023-05-14T21:51:33.074Z,9.67
2023-05-14T21:54:19.549Z,9.64
2023-05-14T21:57:06.426Z,9.60
2023-05-14T21:59:52.736Z,9.56
2023-05-14T22:02:39.715Z,9.38
2023-05-14T22:05:26.442Z,9.45
2023-05-14T22:08:13.116Z,9.39
2023-05-14T22:10:59.334Z,9.07
2023-05-14T22:13:45.997Z,9.19
2023-05-14T22:16:33.028Z,9.16
2023-05-14T22:19:19.461Z,9.14
2023-05-14T22:22:05.733Z,9.01
2023-05-14T22:24:51.897Z,8.97
2023-05-14T22:27:37.924Z,8.94
2023-05-14T22:30:24.495Z,8.70
2023-05-14T22:33:10.966Z,8.87
2023-05-14T22:35:57.374Z,8.96
2023-05-14T22:38:44.044Z,8.80
2023-05-14T22:41:30.888Z,8.63
2023-05-14T22:44:16.909Z,9.08
2023-05-14T22:47:05.205Z,8.99
2023-05-14T22:49:51.410Z,8.77
2023-05-14T22:52:40.192Z,8.60
2023-05-14T22:55:26.908Z,8.65
2023-05-14T22:58:13.843Z,8.58
2023-05-14T23:01:00.375Z,8.45
2023-05-14T23:03:46.807Z,8.45
2023-05-14T23:06:32.960Z,8.68
2023-05-14T23:09:19.174Z,8.63
2023-05-14T23:12:05.600Z,8.73
2023-05-14T23:14:51.743Z,9.08
2023-05-14T23:17:38.825Z,9.11
2023-05-14T23:20:25.383Z,9.00
2023-05-14T23:23:11.740Z,8.71
2023-05-14T23:25:58.057Z,8.78
2023-05-14T23:28:44.265Z,8.56
2023-05-14T23:31:30.430Z,8.67
2023-05-14T23:34:18.315Z,8.78
2023-05-14T23:37:04.828Z,8.78
2023-05-14T23:39:52.634Z,8.73
2023-05-14T23:42:39.364Z,8.42
2023-05-14T23:45:30.053Z,8.46
2023-05-14T23:48:16.398Z,8.46
2023-05-14T23:51:02.718Z,8.42
2023-05-14T23:53:48.893Z,8.34
2023-05-14T23:56:35.562Z,8.15
2023-05-14T23:59:22.503Z,8.17
